Time;durP1;ratioP1;P1;durP2;ratioP2;P2;SDS_P1;SDS_P2;PMS_P1;PMS_P2;Temp;Humidity;BMP_temperature;BMP_pressure;BME280_temperature;BME280_humidity;BME280_pressure;Samples;Min_cycle;Max_cycle;Signal;HPM_P1;HPM_P2
2024/01/08 00:01:39;;;;;;;8.40;4.32;;;1.70;99.90;;;;;;4971295;28;20318;-20
2024/01/08 00:04:05;;;;;;;6.80;2.73;;;1.70;99.90;;;;;;4968753;28;20073;-22
2024/01/08 00:06:31;;;;;;;7.40;3.65;;;1.80;99.90;;;;;;4972828;28;20493;-22
2024/01/08 00:08:57;;;;;;;8.02;3.63;;;1.80;99.90;;;;;;4957933;28;20034;-21
2024/01/08 00:11:22;;;;;;;7.33;3.47;;;1.80;99.90;;;;;;4972712;28;20046;-20
2024/01/08 00:13:48;;;;;;;6.82;2.88;;;1.80;99.90;;;;;;4972464;28;20039;-21
2024/01/08 00:16:14;;;;;;;7.13;3.40;;;1.80;99.90;;;;;;4973915;28;20294;-23
2024/01/08 00:18:40;;;;;;;6.17;3.37;;;1.90;99.90;;;;;;4974854;28;20042;-25
2024/01/08 00:21:05;;;;;;;5.75;2.88;;;1.90;99.90;;;;;;4968892;28;20150;-23
2024/01/08 00:23:34;;;;;;;5.70;2.72;;;1.90;99.90;;;;;;4975361;28;20322;-26
2024/01/08 00:25:59;;;;;;;7.03;3.60;;;2.00;99.90;;;;;;4972667;28;20043;-23
2024/01/08 00:28:26;;;;;;;5.95;2.58;;;2.00;99.90;;;;;;4972270;28;20070;-24
2024/01/08 00:30:52;;;;;;;7.57;3.70;;;2.00;99.90;;;;;;4973359;28;20037;-25
2024/01/08 00:33:18;;;;;;;6.28;3.33;;;4.90;99.90;;;;;;4973538;28;20030;-23
2024/01/08 00:35:44;;;;;;;8.27;3.33;;;2.00;99.90;;;;;;4956256;28;20514;-24
2024/01/08 00:38:10;;;;;;;7.43;3.67;;;2.00;99.90;;;;;;4977491;28;20372;-27
2024/01/08 00:40:36;;;;;;;6.07;2.97;;;2.00;99.90;;;;;;4975235;28;20090;-24
2024/01/08 00:43:01;;;;;;;6.75;3.47;;;2.00;99.90;;;;;;4959944;28;20042;-23
2024/01/08 00:45:27;;;;;;;8.73;4.00;;;2.00;99.90;;;;;;4971974;28;20038;-26
2024/01/08 00:47:53;;;;;;;9.30;4.03;;;2.00;99.90;;;;;;4935933;28;20314;-23
2024/01/08 00:50:18;;;;;;;7.43;3.90;;;2.00;99.90;;;;;;4970044;28;20102;-25
2024/01/08 00:52:44;;;;;;;7.50;3.50;;;2.00;99.90;;;;;;4965871;28;20635;-24
2024/01/08 00:55:11;;;;;;;8.90;4.18;;;2.00;99.90;;;;;;4952592;28;20027;-25
2024/01/08 00:57:38;;;;;;;6.37;3.30;;;2.00;99.90;;;;;;4954839;28;20041;-23
2024/01/08 01:00:05;;;;;;;7.28;3.85;;;2.00;99.90;;;;;;4957805;28;20038;-22
2024/01/08 01:02:31;;;;;;;8.02;4.00;;;2.00;99.90;;;;;;4953266;28;20051;-24
2024/01/08 01:04:57;;;;;;;9.45;4.55;;;2.00;99.90;;;;;;4973569;28;20035;-24
2024/01/08 01:07:22;;;;;;;6.03;3.17;;;2.00;99.90;;;;;;4942083;28;20035;-20
2024/01/08 01:09:48;;;;;;;8.30;4.38;;;2.00;99.90;;;;;;4957287;28;20026;-21
2024/01/08 01:12:14;;;;;;;8.47;4.27;;;2.00;99.90;;;;;;4972154;28;20045;-20
2024/01/08 01:14:40;;;;;;;10.13;5.23;;;1.90;99.90;;;;;;4976444;28;20294;-20
2024/01/08 01:17:06;;;;;;;9.07;4.63;;;1.90;99.90;;;;;;4972848;28;20110;-19
2024/01/08 01:19:32;;;;;;;6.97;3.73;;;1.90;99.90;;;;;;4972301;28;20351;-21
2024/01/08 01:21:58;;;;;;;7.22;3.83;;;1.90;99.90;;;;;;4954089;28;20107;-19
2024/01/08 01:24:24;;;;;;;8.13;4.30;;;1.90;99.90;;;;;;4972927;28;20054;-21
2024/01/08 01:26:50;;;;;;;8.52;4.43;;;1.90;99.90;;;;;;4968445;28;20046;-19
2024/01/08 01:29:16;;;;;;;7.40;3.70;;;1.80;99.90;;;;;;4969490;28;20041;-20
2024/01/08 01:31:42;;;;;;;8.25;4.32;;;1.90;99.90;;;;;;4967772;28;20088;-20
2024/01/08 01:34:10;;;;;;;7.45;3.83;;;1.90;99.90;;;;;;4970198;28;20433;-19
2024/01/08 01:36:39;;;;;;;5.63;3.45;;;1.80;99.90;;;;;;4957242;28;20039;-19
2024/01/08 01:39:06;;;;;;;6.47;2.90;;;1.80;99.90;;;;;;4972319;28;20043;-21
2024/01/08 01:41:32;;;;;;;7.45;3.70;;;1.80;99.90;;;;;;4970808;28;20058;-20
2024/01/08 01:43:58;;;;;;;8.70;4.78;;;1.90;99.90;;;;;;4959934;28;20361;-19
2024/01/08 01:46:44;;;;;;;8.30;3.90;;;1.80;99.90;;;;;;4971687;28;20034;-22
2024/01/08 01:49:15;;;;;;;7.43;4.00;;;1.80;99.90;;;;;;4971572;28;20042;-19
2024/01/08 01:51:42;;;;;;;7.47;3.80;;;1.80;99.90;;;;;;4973985;28;20042;-19
2024/01/08 01:54:11;;;;;;;7.82;4.15;;;1.80;99.90;;;;;;4967774;28;20035;-21
2024/01/08 01:56:37;;;;;;;7.90;4.20;;;1.80;99.90;;;;;;4973258;28;20080;-20
2024/01/08 01:59:04;;;;;;;7.32;3.58;;;1.80;99.90;;;;;;4974462;28;20111;-20
2024/01/08 02:01:31;;;;;;;6.93;3.20;;;1.70;99.90;;;;;;4971894;28;20058;-20
2024/01/08 02:03:57;;;;;;;5.93;3.03;;;1.80;99.90;;;;;;4954800;28;20045;-21
2024/01/08 02:06:26;;;;;;;6.03;3.53;;;1.70;99.90;;;;;;4974890;28;20034;-19
2024/01/08 02:08:53;;;;;;;6.45;3.45;;;1.70;99.90;;;;;;4962544;28;20034;-20
2024/01/08 02:11:19;;;;;;;9.00;4.38;;;1.70;99.90;;;;;;4975501;28;20041;-20
2024/01/08 02:13:45;;;;;;;9.70;4.20;;;1.70;99.90;;;;;;4980929;28;20033;-19
2024/01/08 02:16:11;;;;;;;7.88;3.85;;;1.70;99.90;;;;;;4978166;28;20058;-24
2024/01/08 02:18:37;;;;;;;6.18;3.65;;;1.70;99.90;;;;;;4966942;28;20035;-23
2024/01/08 02:21:03;;;;;;;9.37;4.83;;;1.70;99.90;;;;;;4979467;28;20351;-23
2024/01/08 02:23:29;;;;;;;7.10;3.22;;;1.70;99.90;;;;;;4976265;28;20048;-22
2024/01/08 02:25:55;;;;;;;7.72;3.60;;;1.60;99.90;;;;;;4980235;28;20262;-23
2024/01/08 02:28:21;;;;;;;6.13;2.83;;;1.60;99.90;;;;;;4980837;28;20077;-24
2024/01/08 02:30:47;;;;;;;6.57;3.50;;;1.70;99.90;;;;;;4980645;28;20479;-23
2024/01/08 02:33:12;;;;;;;7.30;3.60;;;1.70;99.90;;;;;;4964029;28;20038;-22
2024/01/08 02:35:38;;;;;;;6.95;3.33;;;1.70;99.90;;;;;;4981112;28;20109;-22
2024/01/08 02:38:04;;;;;;;9.83;4.43;;;1.70;99.90;;;;;;4979072;28;20053;-21
2024/01/08 02:40:29;;;;;;;9.80;4.63;;;1.70;99.90;;;;;;4980357;28;20085;-20
2024/01/08 02:42:55;;;;;;;9.07;4.33;;;1.70;99.90;;;;;;4982334;28;20346;-20
2024/01/08 02:45:21;;;;;;;10.27;5.13;;;1.70;99.90;;;;;;4971291;28;20290;-20
2024/01/08 02:47:46;;;;;;;10.50;5.20;;;1.70;99.90;;;;;;4974754;28;20339;-19
2024/01/08 02:50:12;;;;;;;11.27;5.65;;;1.70;99.90;;;;;;4961027;28;20186;-23
2024/01/08 02:52:38;;;;;;;12.07;5.73;;;1.60;99.90;;;;;;4976420;28;20034;-20
2024/01/08 02:55:04;;;;;;;8.80;4.18;;;4.70;99.90;;;;;;4958336;28;20058;-20
2024/01/08 02:57:30;;;;;;;13.57;6.28;;;1.70;99.90;;;;;;4981909;28;20038;-20
2024/01/08 02:59:56;;;;;;;11.30;5.60;;;1.70;99.90;;;;;;4977896;28;20049;-19
2024/01/08 03:02:26;;;;;;;14.77;7.30;;;1.70;99.90;;;;;;4975365;28;20498;-20
2024/01/08 03:04:52;;;;;;;13.90;6.25;;;1.70;99.90;;;;;;4959709;28;20046;-19
2024/01/08 03:07:20;;;;;;;14.93;6.32;;;1.70;99.90;;;;;;4977710;28;20035;-20
2024/01/08 03:09:47;;;;;;;14.85;6.93;;;1.70;99.90;;;;;;4974888;28;20037;-20
2024/01/08 03:12:13;;;;;;;12.23;5.50;;;1.70;99.90;;;;;;4980484;28;20045;-21
2024/01/08 03:14:39;;;;;;;11.40;5.03;;;1.70;99.90;;;;;;4978925;28;20364;-21
2024/01/08 03:17:05;;;;;;;9.80;4.80;;;1.70;99.90;;;;;;4976804;28;20116;-19
2024/01/08 03:19:31;;;;;;;12.85;5.40;;;1.70;99.90;;;;;;4943086;28;20039;-20
2024/01/08 03:22:00;;;;;;;11.07;5.47;;;1.70;99.90;;;;;;4973045;28;20294;-19
2024/01/08 03:24:26;;;;;;;9.10;4.45;;;1.70;99.90;;;;;;4961213;28;20100;-19
2024/01/08 03:26:52;;;;;;;10.30;4.93;;;1.70;99.90;;;;;;4977890;28;20030;-20
2024/01/08 03:29:17;;;;;;;8.80;4.03;;;1.70;99.90;;;;;;4974133;28;20147;-19
2024/01/08 03:31:44;;;;;;;9.82;4.53;;;1.70;99.90;;;;;;4985141;28;20034;-19
2024/01/08 03:34:10;;;;;;;12.70;5.27;;;1.70;99.90;;;;;;4974566;28;20074;-19
2024/01/08 03:36:36;;;;;;;9.75;4.50;;;1.80;99.90;;;;;;4975178;28;20050;-19
2024/01/08 03:39:02;;;;;;;8.45;3.42;;;1.70;99.90;;;;;;4964507;28;20061;-20
2024/01/08 03:41:27;;;;;;;8.03;4.30;;;1.70;99.90;;;;;;4974610;28;20034;-20
2024/01/08 03:43:53;;;;;;;6.72;3.55;;;1.70;99.90;;;;;;4956037;28;20068;-21
2024/01/08 03:46:19;;;;;;;7.20;3.60;;;1.30;99.90;;;;;;4963032;28;20042;-19
2024/01/08 03:48:44;;;;;;;6.18;2.72;;;1.70;99.90;;;;;;4974404;28;20082;-21
2024/01/08 03:51:10;;;;;;;5.17;2.60;;;1.70;99.90;;;;;;4976893;28;20094;-19
2024/01/08 03:53:36;;;;;;;6.00;2.50;;;1.70;99.90;;;;;;4974613;28;20035;-20
2024/01/08 03:56:02;;;;;;;7.45;3.25;;;1.70;99.90;;;;;;4959018;28;20081;-21
2024/01/08 03:58:27;;;;;;;6.83;3.50;;;1.80;99.90;;;;;;4975254;28;20060;-20
2024/01/08 04:00:56;;;;;;;11.47;4.87;;;1.70;99.90;;;;;;4974586;28;20039;-19
2024/01/08 04:03:22;;;;;;;9.80;4.35;;;1.70;99.90;;;;;;4975839;28;20161;-20
2024/01/08 04:05:48;;;;;;;7.00;3.45;;;1.70;99.90;;;;;;4975809;28;20078;-21
2024/01/08 04:08:13;;;;;;;8.68;4.05;;;1.70;99.90;;;;;;4977233;28;20109;-19
2024/01/08 04:10:39;;;;;;;7.50;3.90;;;1.70;99.90;;;;;;4975708;28;20050;-20
2024/01/08 04:13:05;;;;;;;9.45;4.70;;;0.10;99.90;;;;;;4958775;28;20231;-19
2024/01/08 04:15:31;;;;;;;4.73;2.40;;;1.70;99.90;;;;;;4974663;28;20057;-20
2024/01/08 04:17:57;;;;;;;9.60;5.25;;;1.70;99.90;;;;;;4976650;28;20536;-21
2024/01/08 04:20:22;;;;;;;9.50;4.50;;;1.70;99.90;;;;;;4974921;28;20046;-20
2024/01/08 04:22:49;;;;;;;7.50;4.05;;;1.70;99.90;;;;;;4976246;28;20049;-19
2024/01/08 04:25:15;;;;;;;9.75;4.90;;;1.70;99.90;;;;;;4970783;28;20085;-19
2024/01/08 04:27:43;;;;;;;9.27;4.45;;;1.70;99.90;;;;;;4970354;28;20038;-19
2024/01/08 04:30:09;;;;;;;11.53;4.57;;;1.70;99.90;;;;;;4970897;28;20223;-20
2024/01/08 04:32:35;;;;;;;10.68;5.13;;;1.70;99.90;;;;;;4970689;28;20058;-21
2024/01/08 04:35:02;;;;;;;9.07;4.70;;;1.70;99.90;;;;;;4966051;28;20070;-21
2024/01/08 04:37:28;;;;;;;8.20;4.07;;;1.70;99.90;;;;;;4971523;28;20356;-22
2024/01/08 04:39:54;;;;;;;12.90;5.80;;;1.60;99.90;;;;;;4970941;28;20279;-22
2024/01/08 04:42:20;;;;;;;8.10;3.87;;;1.60;99.90;;;;;;4970332;28;20045;-23
2024/01/08 04:44:49;;;;;;;8.80;3.88;;;1.60;99.90;;;;;;4973423;28;20197;-22
2024/01/08 04:47:15;;;;;;;8.48;3.90;;;1.50;99.90;;;;;;4970906;28;20070;-23
2024/01/08 04:49:41;;;;;;;6.13;3.23;;;1.50;99.90;;;;;;4952719;28;20043;-24
2024/01/08 04:52:07;;;;;;;7.28;3.58;;;1.50;99.90;;;;;;4969882;28;20225;-22
2024/01/08 04:54:32;;;;;;;5.70;2.97;;;1.30;99.90;;;;;;4956469;28;20347;-23
2024/01/08 04:56:58;;;;;;;5.88;3.10;;;1.30;99.90;;;;;;4969981;28;20034;-24
2024/01/08 04:59:24;;;;;;;6.80;3.10;;;1.30;99.90;;;;;;4970886;28;20049;-23
2024/01/08 05:01:50;;;;;;;5.47;3.30;;;2.70;99.90;;;;;;4937618;28;20323;-22
2024/01/08 05:04:17;;;;;;;6.07;3.10;;;1.10;99.90;;;;;;4972453;28;20034;-21
2024/01/08 05:06:44;;;;;;;5.70;3.03;;;1.10;99.90;;;;;;4976354;28;20386;-24
2024/01/08 05:09:10;;;;;;;5.00;2.47;;;1.10;99.90;;;;;;4973649;28;20338;-24
2024/01/08 05:11:36;;;;;;;5.75;3.00;;;1.10;99.90;;;;;;4972042;28;20023;-24
2024/01/08 05:14:04;;;;;;;5.97;2.85;;;1.00;99.90;;;;;;4967565;28;20058;-22
2024/01/08 05:16:29;;;;;;;9.05;4.35;;;1.10;99.90;;;;;;4974227;28;20031;-25
2024/01/08 05:18:55;;;;;;;5.67;2.23;;;1.10;99.90;;;;;;4952082;28;20125;-25
2024/01/08 05:21:21;;;;;;;6.20;2.67;;;1.20;99.90;;;;;;4970957;28;20363;-22
2024/01/08 05:23:47;;;;;;;6.40;3.00;;;1.10;99.90;;;;;;4957834;28;20095;-22
2024/01/08 05:26:12;;;;;;;5.70;2.80;;;1.10;99.90;;;;;;4956064;28;20055;-22
2024/01/08 05:28:38;;;;;;;5.93;2.93;;;1.10;99.90;;;;;;4970028;28;20039;-23
2024/01/08 05:31:04;;;;;;;5.35;2.70;;;1.10;99.90;;;;;;4970119;28;20039;-22
2024/01/08 05:33:30;;;;;;;4.27;2.43;;;1.20;99.90;;;;;;4970099;28;20144;-22
2024/01/08 05:35:56;;;;;;;4.22;2.20;;;1.20;99.90;;;;;;4971573;28;20042;-22
2024/01/08 05:38:22;;;;;;;5.65;2.63;;;1.20;99.90;;;;;;4955564;28;20106;-22
2024/01/08 05:40:49;;;;;;;5.43;2.78;;;1.30;99.90;;;;;;4952375;28;20054;-26
2024/01/08 05:43:15;;;;;;;5.23;2.40;;;3.70;99.90;;;;;;4970203;28;20053;-21
2024/01/08 05:45:41;;;;;;;6.18;2.95;;;1.30;99.90;;;;;;4972690;28;20459;-22
2024/01/08 05:48:07;;;;;;;6.15;2.97;;;1.30;99.90;;;;;;4968237;28;20042;-23
2024/01/08 05:50:33;;;;;;;5.93;2.97;;;1.30;99.90;;;;;;4960773;28;20039;-25
2024/01/08 05:53:00;;;;;;;5.03;2.80;;;1.30;99.90;;;;;;4969432;28;20334;-23
2024/01/08 05:55:26;;;;;;;4.75;2.80;;;1.30;99.90;;;;;;4970782;28;20046;-22
2024/01/08 05:57:52;;;;;;;5.53;2.80;;;0.30;99.90;;;;;;4970134;28;20058;-22
2024/01/08 06:00:18;;;;;;;5.07;2.40;;;1.40;99.90;;;;;;4967627;28;20357;-23
2024/01/08 06:02:44;;;;;;;5.05;2.63;;;1.40;99.90;;;;;;4967932;28;20045;-22
2024/01/08 06:05:10;;;;;;;5.20;2.60;;;1.40;99.90;;;;;;4973218;28;20114;-22
2024/01/08 06:07:36;;;;;;;5.10;2.20;;;1.40;99.90;;;;;;4951063;28;20337;-23
2024/01/08 06:10:02;;;;;;;6.07;2.85;;;1.40;99.90;;;;;;4968976;28;20098;-23
2024/01/08 06:12:28;;;;;;;5.85;2.85;;;1.40;99.90;;;;;;4971260;28;20054;-22
2024/01/08 06:14:55;;;;;;;3.73;2.20;;;1.40;99.90;;;;;;4965463;28;20069;-22
2024/01/08 06:17:21;;;;;;;5.57;2.63;;;1.40;99.90;;;;;;4949496;28;20118;-23
2024/01/08 06:19:48;;;;;;;4.90;2.40;;;1.40;99.90;;;;;;4937828;28;20047;-24
2024/01/08 06:22:14;;;;;;;5.53;2.60;;;1.40;99.90;;;;;;4972822;28;20049;-23
2024/01/08 06:24:40;;;;;;;6.10;2.70;;;1.40;99.90;;;;;;4971525;28;20054;-28
2024/01/08 06:27:06;;;;;;;4.13;2.13;;;1.40;99.90;;;;;;4972868;28;20042;-22
2024/01/08 06:29:32;;;;;;;4.90;2.63;;;1.40;99.90;;;;;;4974689;28;20102;-23
2024/01/08 06:31:58;;;;;;;6.30;3.17;;;1.40;99.90;;;;;;4971937;28;20335;-23
2024/01/08 06:34:24;;;;;;;4.73;2.30;;;1.40;99.90;;;;;;4955995;28;20100;-23
2024/01/08 06:36:50;;;;;;;4.13;2.20;;;1.40;99.90;;;;;;4971633;28;20063;-23
2024/01/08 06:39:16;;;;;;;6.33;2.63;;;1.40;99.90;;;;;;4941373;28;20038;-22
2024/01/08 06:41:41;;;;;;;5.60;2.30;;;1.40;99.90;;;;;;4955239;28;20677;-22
2024/01/08 06:44:07;;;;;;;5.15;2.75;;;1.40;99.90;;;;;;4975220;28;20098;-24
2024/01/08 06:46:33;;;;;;;4.53;2.10;;;1.40;99.90;;;;;;4969097;28;20246;-23
2024/01/08 06:48:58;;;;;;;5.28;2.30;;;1.40;99.90;;;;;;4973598;28;20410;-22
2024/01/08 06:51:24;;;;;;;5.63;2.57;;;1.40;99.90;;;;;;4972506;28;20324;-24
2024/01/08 06:53:50;;;;;;;4.80;2.37;;;1.40;99.90;;;;;;4971912;28;20216;-21
2024/01/08 06:56:15;;;;;;;5.70;2.80;;;1.40;99.90;;;;;;4973881;28;20208;-22
2024/01/08 06:58:41;;;;;;;4.53;2.47;;;1.40;99.90;;;;;;4976001;28;20320;-22
2024/01/08 07:01:07;;;;;;;6.00;2.42;;;1.40;99.90;;;;;;4969096;28;20300;-22
2024/01/08 07:03:34;;;;;;;5.30;2.60;;;1.40;99.90;;;;;;4975752;28;20505;-23
2024/01/08 07:06:01;;;;;;;4.88;2.30;;;1.50;99.90;;;;;;4978574;28;20042;-24
2024/01/08 07:08:27;;;;;;;5.72;2.70;;;1.50;99.90;;;;;;4973521;28;20354;-25
2024/01/08 07:10:53;;;;;;;6.97;2.78;;;1.40;99.90;;;;;;4975142;28;20043;-24
2024/01/08 07:13:19;;;;;;;5.33;2.63;;;1.50;99.90;;;;;;4977549;28;20427;-21
2024/01/08 07:15:47;;;;;;;4.80;2.40;;;1.50;99.90;;;;;;4973146;28;20235;-24
2024/01/08 07:18:13;;;;;;;7.27;2.90;;;1.40;99.90;;;;;;4977068;28;20027;-21
2024/01/08 07:20:40;;;;;;;6.63;2.75;;;1.40;99.90;;;;;;4975339;28;20231;-19
2024/01/08 07:23:10;;;;;;;6.53;2.85;;;1.40;99.90;;;;;;4972529;28;20050;-21
2024/01/08 07:25:40;;;;;;;8.48;3.53;;;1.40;99.90;;;;;;4955406;28;20070;-20
2024/01/08 07:28:07;;;;;;;6.50;3.05;;;1.40;99.90;;;;;;4974814;28;20039;-20
2024/01/08 07:30:34;;;;;;;5.87;2.60;;;1.40;99.90;;;;;;4973743;28;20022;-19
2024/01/08 07:32:59;;;;;;;6.13;2.90;;;1.40;99.90;;;;;;4975892;28;20036;-19
2024/01/08 07:35:25;;;;;;;5.78;3.03;;;1.40;99.90;;;;;;4974885;28;20247;-19
2024/01/08 07:37:55;;;;;;;7.37;3.10;;;1.40;99.90;;;;;;4975005;28;20034;-19
2024/01/08 07:40:25;;;;;;;6.25;3.20;;;1.40;99.90;;;;;;4958516;28;20042;-20
2024/01/08 07:42:57;;;;;;;4.53;2.17;;;1.40;99.90;;;;;;4941283;28;20118;-20
2024/01/08 07:45:26;;;;;;;7.45;3.67;;;1.40;99.90;;;;;;4970551;28;20121;-19
2024/01/08 07:47:52;;;;;;;6.00;2.97;;;1.40;99.90;;;;;;4971937;28;20373;-20
2024/01/08 07:50:22;;;;;;;8.10;3.45;;;1.40;99.90;;;;;;4974582;28;20330;-20
2024/01/08 07:52:47;;;;;;;7.15;3.63;;;1.50;99.90;;;;;;4975208;28;20210;-21
2024/01/08 07:55:13;;;;;;;7.23;3.43;;;1.40;99.90;;;;;;4975730;28;20039;-20
2024/01/08 07:57:39;;;;;;;6.93;3.28;;;1.40;99.90;;;;;;4972188;28;20518;-19
2024/01/08 08:00:09;;;;;;;5.18;2.65;;;1.40;99.90;;;;;;4959034;28;20054;-19
2024/01/08 08:02:36;;;;;;;7.13;3.40;;;1.50;99.90;;;;;;4974683;28;20113;-19
2024/01/08 08:05:02;;;;;;;6.82;3.47;;;1.40;99.90;;;;;;4969177;28;20038;-20
2024/01/08 08:07:28;;;;;;;5.38;2.95;;;1.50;99.90;;;;;;4972350;28;20380;-20
2024/01/08 08:09:55;;;;;;;6.50;2.97;;;1.50;99.90;;;;;;4970044;28;20031;-20
2024/01/08 08:12:21;;;;;;;5.83;3.00;;;1.50;99.90;;;;;;4970731;28;20541;-21
2024/01/08 08:14:49;;;;;;;7.10;3.47;;;1.50;99.90;;;;;;4973396;28;20097;-21
2024/01/08 08:17:16;;;;;;;8.13;3.47;;;1.50;99.90;;;;;;4973564;28;20069;-25
2024/01/08 08:19:43;;;;;;;7.03;3.10;;;1.50;99.90;;;;;;4972148;28;20313;-23
2024/01/08 08:22:12;;;;;;;8.80;3.20;;;1.50;99.90;;;;;;4974024;28;20070;-24
2024/01/08 08:24:39;;;;;;;11.75;5.00;;;1.50;99.90;;;;;;4973488;28;20419;-22
2024/01/08 08:27:09;;;;;;;9.23;4.50;;;1.60;99.90;;;;;;4972963;28;20047;-19
2024/01/08 08:29:37;;;;;;;8.70;4.32;;;1.60;99.90;;;;;;4975126;28;20021;-20
2024/01/08 08:32:04;;;;;;;10.15;4.60;;;1.60;99.90;;;;;;4970723;28;20082;-20
2024/01/08 08:34:30;;;;;;;8.80;4.10;;;1.60;99.90;;;;;;4956528;28;20196;-20
2024/01/08 08:36:56;;;;;;;9.68;4.40;;;1.60;99.90;;;;;;4970317;28;20086;-21
2024/01/08 08:39:22;;;;;;;7.38;3.47;;;1.60;99.90;;;;;;4942067;28;20100;-20
2024/01/08 08:41:48;;;;;;;8.52;3.92;;;1.60;99.90;;;;;;4958138;28;20054;-20
2024/01/08 08:44:14;;;;;;;10.40;4.63;;;1.60;99.90;;;;;;4975146;28;20227;-19
2024/01/08 08:46:40;;;;;;;7.53;3.28;;;1.70;99.90;;;;;;4959006;28;20051;-19
2024/01/08 08:49:06;;;;;;;9.30;4.47;;;1.70;99.90;;;;;;4972651;28;20403;-19
2024/01/08 08:51:34;;;;;;;8.50;3.80;;;1.80;99.90;;;;;;4986463;28;20317;-20
2024/01/08 08:54:03;;;;;;;7.75;3.78;;;1.70;99.90;;;;;;4971754;28;20381;-21
2024/01/08 08:56:32;;;;;;;8.18;3.85;;;1.80;99.90;;;;;;4971542;28;20045;-20
2024/01/08 08:58:58;;;;;;;11.75;5.60;;;1.80;99.90;;;;;;4964386;28;20312;-20
2024/01/08 09:01:25;;;;;;;9.60;4.85;;;3.10;99.90;;;;;;4972219;28;20193;-19
2024/01/08 09:03:52;;;;;;;7.83;3.93;;;1.80;99.90;;;;;;4970936;28;20035;-21
2024/01/08 09:06:20;;;;;;;8.27;3.90;;;1.80;99.90;;;;;;4971948;28;20090;-20
2024/01/08 09:08:47;;;;;;;8.23;4.15;;;1.80;99.90;;;;;;4970892;28;20031;-19
2024/01/08 09:11:13;;;;;;;10.55;4.40;;;1.90;99.90;;;;;;4967808;28;20029;-19
2024/01/08 09:13:38;;;;;;;8.52;4.00;;;1.90;99.90;;;;;;4957479;28;20039;-20
2024/01/08 09:16:04;;;;;;;7.50;3.70;;;1.90;99.90;;;;;;4958928;28;20069;-20
2024/01/08 09:18:30;;;;;;;7.97;4.00;;;1.90;99.90;;;;;;4971935;28;20045;-20
2024/01/08 09:20:55;;;;;;;6.53;3.38;;;1.90;99.90;;;;;;4969331;28;20121;-20
2024/01/08 09:23:21;;;;;;;8.03;4.27;;;2.00;99.90;;;;;;4971238;28;20038;-20
2024/01/08 09:25:47;;;;;;;6.55;3.55;;;1.90;99.90;;;;;;4970091;28;20042;-20
2024/01/08 09:28:13;;;;;;;9.88;4.43;;;1.90;99.90;;;;;;4956311;28;20047;-19
2024/01/08 09:30:39;;;;;;;9.33;4.50;;;1.90;99.90;;;;;;4972627;28;20352;-19
2024/01/08 09:33:05;;;;;;;8.02;3.88;;;2.00;99.90;;;;;;4972929;28;20495;-19
2024/01/08 09:35:31;;;;;;;7.97;4.10;;;2.00;99.90;;;;;;4953933;28;20336;-20
2024/01/08 09:37:56;;;;;;;8.18;3.92;;;2.00;99.90;;;;;;4976354;28;20367;-22
2024/01/08 09:40:22;;;;;;;11.23;5.17;;;2.00;99.90;;;;;;4970428;28;20034;-22
2024/01/08 09:42:52;;;;;;;9.70;5.05;;;2.00;99.90;;;;;;4969473;28;20046;-25
2024/01/08 09:45:22;;;;;;;8.00;3.78;;;2.00;99.90;;;;;;4971777;28;20069;-24
2024/01/08 09:47:49;;;;;;;9.75;4.68;;;2.00;99.90;;;;;;4970541;28;20058;-23
2024/01/08 09:50:16;;;;;;;8.00;4.03;;;0.90;99.90;;;;;;4977594;28;20041;-23
2024/01/08 09:52:43;;;;;;;6.65;3.80;;;2.00;99.90;;;;;;4973083;28;20062;-22
2024/01/08 09:55:10;;;;;;;8.52;3.78;;;2.10;99.90;;;;;;4970240;28;20311;-22
2024/01/08 09:57:36;;;;;;;9.10;4.20;;;2.10;99.90;;;;;;4974723;28;20034;-22
2024/01/08 10:00:04;;;;;;;7.68;3.55;;;2.10;99.90;;;;;;4941427;28;20043;-23
2024/01/08 10:02:29;;;;;;;6.03;3.23;;;2.10;99.90;;;;;;4962327;28;20034;-22
2024/01/08 10:04:55;;;;;;;8.70;4.25;;;2.10;99.90;;;;;;4968295;28;20051;-22
2024/01/08 10:07:22;;;;;;;6.63;3.40;;;2.10;99.90;;;;;;4971329;28;20355;-22
2024/01/08 10:09:48;;;;;;;8.00;3.70;;;2.20;99.90;;;;;;4966832;28;20053;-23
2024/01/08 10:12:15;;;;;;;8.20;3.95;;;2.20;99.90;;;;;;4966154;28;20034;-23
2024/01/08 10:14:40;;;;;;;5.28;2.65;;;2.20;99.90;;;;;;4957664;28;20360;-25
2024/01/08 10:17:06;;;;;;;8.27;4.07;;;2.20;99.90;;;;;;4946560;28;20043;-24
2024/01/08 10:19:32;;;;;;;8.68;4.28;;;2.30;99.90;;;;;;4975664;28;20086;-22
2024/01/08 10:22:11;;;;;;;6.17;3.03;;;2.40;99.90;;;;;;4971919;28;20338;-23
2024/01/08 10:24:39;;;;;;;5.90;2.83;;;2.50;99.90;;;;;;4971952;28;20085;-22
2024/01/08 10:27:07;;;;;;;7.53;3.85;;;2.60;99.90;;;;;;4973419;28;20066;-24
2024/01/08 10:29:34;;;;;;;8.75;4.50;;;2.60;99.90;;;;;;4972692;28;20031;-26
2024/01/08 10:32:00;;;;;;;8.37;4.07;;;2.70;99.90;;;;;;4975861;28;20053;-22
2024/01/08 10:34:26;;;;;;;8.65;4.07;;;2.70;99.90;;;;;;4962040;28;20054;-23
2024/01/08 10:36:55;;;;;;;8.05;3.65;;;2.70;99.90;;;;;;4965187;28;20054;-22
2024/01/08 10:39:22;;;;;;;7.50;3.67;;;2.70;99.90;;;;;;4953296;28;20041;-22
2024/01/08 10:41:48;;;;;;;7.65;4.10;;;2.80;99.90;;;;;;4979696;28;20268;-23
2024/01/08 10:44:14;;;;;;;9.47;4.50;;;2.90;99.90;;;;;;4964346;28;20110;-24
2024/01/08 10:46:59;;;;;;;8.23;3.97;;;3.10;99.90;;;;;;4976246;28;20043;-26
2024/01/08 10:49:38;;;;;;;8.40;4.68;;;3.30;99.90;;;;;;4981492;28;20640;-21
2024/01/08 10:52:16;;;;;;;7.93;4.00;;;3.40;99.90;;;;;;4974122;28;20046;-22
2024/01/08 10:55:02;;;;;;;7.80;3.53;;;3.50;99.90;;;;;;4976377;28;20038;-22
2024/01/08 10:57:41;;;;;;;10.53;4.67;;;3.60;99.90;;;;;;4977877;28;20038;-23
2024/01/08 11:00:09;;;;;;;8.55;4.32;;;3.70;99.90;;;;;;4974933;28;20246;-22
2024/01/08 11:02:37;;;;;;;7.25;3.90;;;3.70;99.90;;;;;;4958186;28;20101;-23
2024/01/08 11:05:05;;;;;;;8.05;4.35;;;3.60;99.90;;;;;;4956972;28;20053;-22
2024/01/08 11:07:37;;;;;;;6.88;3.67;;;3.60;99.90;;;;;;4971917;28;20030;-23
2024/01/08 11:10:04;;;;;;;7.10;3.60;;;3.50;99.90;;;;;;4975639;28;20078;-25
2024/01/08 11:12:30;;;;;;;9.25;4.30;;;3.40;99.90;;;;;;4978121;28;20046;-24
2024/01/08 11:15:06;;;;;;;7.28;3.55;;;3.40;99.90;;;;;;4975208;28;20039;-24
2024/01/08 11:17:33;;;;;;;8.70;4.10;;;3.20;99.90;;;;;;4974844;28;20101;-22
2024/01/08 11:19:59;;;;;;;8.98;4.72;;;3.20;99.90;;;;;;4962360;28;20030;-23
2024/01/08 11:22:26;;;;;;;7.83;4.13;;;2.30;99.90;;;;;;4956878;28;20047;-22
2024/01/08 11:25:03;;;;;;;7.78;3.88;;;3.00;99.90;;;;;;4955271;28;20110;-25
2024/01/08 11:27:31;;;;;;;7.53;3.08;;;3.00;99.90;;;;;;4955370;28;20032;-22
2024/01/08 11:29:58;;;;;;;7.25;3.53;;;3.00;99.90;;;;;;4954417;28;20039;-22
2024/01/08 11:32:48;;;;;;;10.43;5.25;;;2.90;99.90;;;;;;4941556;28;20343;-21
2024/01/08 11:35:19;;;;;;;7.20;3.70;;;2.90;99.90;;;;;;4954557;28;20086;-22
2024/01/08 11:38:08;;;;;;;7.55;3.92;;;2.80;99.90;;;;;;4944058;28;20098;-22
2024/01/08 11:40:34;;;;;;;6.43;3.38;;;3.10;99.90;;;;;;4957800;28;20051;-22
2024/01/08 11:43:01;;;;;;;8.47;4.33;;;2.80;99.90;;;;;;4952991;28;20051;-22
2024/01/08 11:45:28;;;;;;;7.68;3.75;;;2.80;99.90;;;;;;4959585;28;20035;-22
2024/01/08 11:47:54;;;;;;;7.53;3.78;;;1.40;99.90;;;;;;4958580;28;20338;-23
2024/01/08 11:50:20;;;;;;;8.57;4.20;;;2.80;99.90;;;;;;4956383;28;20035;-22
2024/01/08 11:52:48;;;;;;;10.45;5.45;;;2.90;99.90;;;;;;4941963;28;20325;-22
2024/01/08 11:55:14;;;;;;;9.57;4.57;;;2.90;99.90;;;;;;4957023;28;20094;-21
2024/01/08 11:57:40;;;;;;;10.55;4.45;;;2.80;99.90;;;;;;4952630;28;20351;-22
2024/01/08 12:00:20;;;;;;;6.97;3.70;;;2.80;99.90;;;;;;4956105;28;20039;-22
2024/01/08 12:02:46;;;;;;;10.48;5.45;;;2.80;99.90;;;;;;4955633;28;20039;-23
2024/01/08 12:05:13;;;;;;;8.80;4.57;;;2.70;99.90;;;;;;4954975;28;20452;-22
2024/01/08 12:07:38;;;;;;;8.50;4.20;;;2.70;99.90;;;;;;4933158;28;20070;-22
2024/01/08 12:10:06;;;;;;;8.00;4.17;;;2.70;99.90;;;;;;4927732;28;20049;-22
2024/01/08 12:12:32;;;;;;;7.82;4.18;;;2.60;99.90;;;;;;4934123;28;20354;-22
2024/01/08 12:14:58;;;;;;;6.97;3.47;;;2.60;99.90;;;;;;4925251;28;20031;-22
2024/01/08 12:17:24;;;;;;;8.67;4.33;;;2.60;99.90;;;;;;4956512;28;20347;-22
2024/01/08 12:19:55;;;;;;;7.85;4.25;;;2.60;99.90;;;;;;4957897;28;20118;-24
2024/01/08 12:22:22;;;;;;;9.75;4.70;;;2.60;99.90;;;;;;4978278;28;20033;-23
2024/01/08 12:24:50;;;;;;;9.05;4.47;;;3.40;99.90;;;;;;4975084;28;20561;-21
2024/01/08 12:27:18;;;;;;;9.07;4.47;;;2.30;99.90;;;;;;4974832;28;20098;-22
2024/01/08 12:29:46;;;;;;;9.77;5.00;;;2.90;99.90;;;;;;4954292;28;20316;-21
2024/01/08 12:32:19;;;;;;;10.77;5.60;;;2.90;99.90;;;;;;4971090;28;20042;-22
2024/01/08 12:34:45;;;;;;;8.48;4.38;;;2.90;99.90;;;;;;4971161;28;20056;-22
2024/01/08 12:37:12;;;;;;;9.03;4.27;;;2.90;99.90;;;;;;4976010;28;20078;-22
2024/01/08 12:39:39;;;;;;;10.88;5.65;;;2.90;99.90;;;;;;4972596;28;20054;-22
2024/01/08 12:42:09;;;;;;;8.68;4.53;;;2.90;99.90;;;;;;4973122;28;20046;-21
2024/01/08 12:44:36;;;;;;;8.20;3.92;;;2.90;99.90;;;;;;4979478;28;20193;-22
2024/01/08 12:47:05;;;;;;;6.85;3.58;;;2.90;99.90;;;;;;4974919;28;20428;-23
2024/01/08 12:49:31;;;;;;;5.13;2.70;;;2.90;99.90;;;;;;4947064;28;20029;-21
2024/01/08 12:52:00;;;;;;;7.90;3.55;;;2.80;99.90;;;;;;4956768;28;20036;-22
2024/01/08 12:54:26;;;;;;;8.20;4.50;;;2.90;99.90;;;;;;4973382;28;20106;-22